Time;durP1;ratioP1;P1;durP2;ratioP2;P2;SDS_P1;SDS_P2;PMS_P1;PMS_P2;Temp;Humidity;BMP_temperature;BMP_pressure;BME280_temperature;BME280_humidity;BME280_pressure;Samples;Min_cycle;Max_cycle;Signal;HPM_P1;HPM_P2
2021/12/27 00:01:57;;;;;;;;;;;;;;;24.38;63.00;96497.82;618970;229;63095;-69
2021/12/27 00:04:25;;;;;;;;;;;;;;;24.38;62.24;96497.82;618924;229;63118;-69
2021/12/27 00:06:52;;;;;;;;;;;;;;;24.38;63.80;96491.66;618881;229;63584;-69
2021/12/27 00:09:19;;;;;;;;;;;;;;;24.37;63.63;96496.25;618905;229;64035;-66
2021/12/27 00:11:47;;;;;;;;;;;;;;;24.37;62.99;96498.93;618925;229;64800;-66
2021/12/27 00:14:15;;;;;;;;;;;;;;;24.37;61.56;96496.25;618975;229;64834;-66
2021/12/27 00:16:42;;;;;;;;;;;;;;;24.38;61.86;96515.83;618921;229;65319;-66
2021/12/27 00:19:10;;;;;;;;;;;;;;;24.37;61.93;96511.57;618902;229;64812;-66
2021/12/27 00:21:38;;;;;;;;;;;;;;;24.37;61.88;96519.63;618921;229;62989;-66
2021/12/27 00:24:05;;;;;;;;;;;;;;;24.34;62.15;96509.50;618929;229;63128;-66
2021/12/27 00:26:33;;;;;;;;;;;;;;;24.35;63.01;96522.61;619010;229;62882;-69
2021/12/27 00:29:00;;;;;;;;;;;;;;;24.35;61.78;96524.50;618901;229;62705;-69
2021/12/27 00:31:28;;;;;;;;;;;;;;;24.34;61.87;96525.61;618938;229;63337;-70
2021/12/27 00:33:55;;;;;;;;;;;;;;;24.34;62.64;96522.92;618863;229;63299;-70
2021/12/27 00:36:23;;;;;;;;;;;;;;;24.31;63.27;96508.22;618904;229;62751;-69
2021/12/27 00:38:50;;;;;;;;;;;;;;;24.32;61.74;96530.48;619012;229;63175;-70
2021/12/27 00:41:18;;;;;;;;;;;;;;;24.32;61.53;96523.22;618949;229;63070;-70
2021/12/27 00:43:45;;;;;;;;;;;;;;;24.31;62.10;96520.85;618951;229;65644;-70
2021/12/27 00:46:13;;;;;;;;;;;;;;;24.31;62.28;96531.59;618912;229;65419;-70
2021/12/27 00:48:40;;;;;;;;;;;;;;;24.30;61.85;96528.09;618966;229;65161;-71
2021/12/27 00:51:09;;;;;;;;;;;;;;;24.31;62.32;96540.44;618960;227;65113;-66
2021/12/27 00:53:37;;;;;;;;;;;;;;;24.30;61.90;96532.67;618960;229;65058;-66
2021/12/27 00:56:05;;;;;;;;;;;;;;;24.29;62.15;96539.94;618974;229;62916;-66
2021/12/27 00:58:32;;;;;;;;;;;;;;;24.29;61.59;96537.25;618908;229;64914;-66
2021/12/27 01:01:00;;;;;;;;;;;;;;;24.29;61.75;96536.47;618941;229;65949;-65
2021/12/27 01:03:28;;;;;;;;;;;;;;;24.28;62.06;96541.05;618968;229;65103;-66
2021/12/27 01:05:55;;;;;;;;;;;;;;;24.29;61.65;96541.84;618996;229;64823;-65
2021/12/27 01:08:22;;;;;;;;;;;;;;;24.28;61.77;96549.11;618933;229;65341;-65
2021/12/27 01:11:13;;;;;;;;;;;;;;;24.27;61.64;96538.66;618961;229;62981;-66
2021/12/27 01:13:44;;;;;;;;;;;;;;;24.27;61.74;96549.39;618670;228;62878;-65
2021/12/27 01:18:39;;;;;;;;;;;;;;;24.25;63.28;96536.26;618970;229;62989;-66
2021/12/27 01:21:06;;;;;;;;;;;;;;;24.24;62.05;96545.42;618994;229;65067;-65
2021/12/27 01:23:34;;;;;;;;;;;;;;;24.23;62.06;96535.00;618915;229;65495;-66
2021/12/27 01:26:02;;;;;;;;;;;;;;;24.23;61.87;96541.16;618917;229;65228;-66
2021/12/27 01:28:29;;;;;;;;;;;;;;;24.22;63.16;96538.77;618958;229;63991;-66
2021/12/27 01:30:57;;;;;;;;;;;;;;;24.23;61.83;96540.37;618933;229;64152;-65
2021/12/27 01:33:25;;;;;;;;;;;;;;;24.21;61.98;96537.19;618982;229;65160;-65
2021/12/27 01:35:53;;;;;;;;;;;;;;;24.20;63.90;96538.27;618930;229;65073;-66
2021/12/27 01:38:21;;;;;;;;;;;;;;;24.20;62.37;96538.27;618884;229;65589;-66
2021/12/27 01:40:50;;;;;;;;;;;;;;;24.20;61.99;96543.64;618979;229;62673;-65
2021/12/27 01:43:25;;;;;;;;;;;;;;;24.18;62.64;96532.43;618950;229;65094;-66
2021/12/27 01:45:54;;;;;;;;;;;;;;;24.18;65.76;96537.80;618982;229;63048;-66
2021/12/27 01:48:24;;;;;;;;;;;;;;;24.17;64.66;96538.88;618983;229;63245;-66
2021/12/27 01:50:53;;;;;;;;;;;;;;;24.14;65.68;96545.64;621425;227;63615;-66
2021/12/27 01:53:21;;;;;;;;;;;;;;;24.12;64.49;96547.86;624166;227;63283;-66
2021/12/27 01:55:49;;;;;;;;;;;;;;;24.12;65.73;96537.91;624187;227;65199;-66
2021/12/27 01:58:17;;;;;;;;;;;;;;;24.12;65.64;96540.59;624182;227;64989;-66
2021/12/27 02:00:46;;;;;;;;;;;;;;;24.13;65.58;96536.02;624207;227;62962;-66
2021/12/27 02:03:15;;;;;;;;;;;;;;;24.11;63.98;96536.30;624163;227;65091;-66
2021/12/27 02:05:43;;;;;;;;;;;;;;;24.11;66.98;96538.98;624199;227;65054;-66
2021/12/27 02:08:10;;;;;;;;;;;;;;;24.11;65.35;96538.20;624177;227;65351;-66
2021/12/27 02:10:39;;;;;;;;;;;;;;;24.10;65.87;96533.94;624179;227;63068;-66
2021/12/27 02:13:07;;;;;;;;;;;;;;;24.09;66.22;96543.89;624231;227;62761;-66
2021/12/27 02:15:34;;;;;;;;;;;;;;;24.07;66.69;96546.06;624156;227;63423;-66
2021/12/27 02:18:02;;;;;;;;;;;;;;;24.07;66.20;96558.70;624241;227;64998;-67
2021/12/27 02:20:31;;;;;;;;;;;;;;;24.07;66.14;96559.49;624245;227;64859;-66
2021/12/27 02:23:01;;;;;;;;;;;;;;;24.06;66.29;96551.73;624164;227;65528;-66
2021/12/27 02:25:30;;;;;;;;;;;;;;;24.05;65.63;96545.56;624187;227;65252;-66
2021/12/27 02:27:59;;;;;;;;;;;;;;;24.06;66.14;96552.55;624212;227;65052;-66
2021/12/27 02:30:26;;;;;;;;;;;;;;;24.05;64.77;96556.31;624137;227;65448;-66
2021/12/27 02:32:56;;;;;;;;;;;;;;;24.04;65.75;96556.63;624200;227;65010;-66
2021/12/27 02:35:25;;;;;;;;;;;;;;;24.04;65.84;96562.78;624176;227;65070;-66
2021/12/27 02:37:53;;;;;;;;;;;;;;;24.03;66.08;96561.17;624136;227;65774;-66
2021/12/27 02:40:22;;;;;;;;;;;;;;;24.02;66.57;96554.23;624258;227;65032;-66
2021/12/27 02:42:59;;;;;;;;;;;;;;;24.04;66.20;96560.09;624167;227;64845;-66
2021/12/27 02:45:29;;;;;;;;;;;;;;;24.03;66.06;96555.02;624152;227;63191;-66
2021/12/27 02:47:57;;;;;;;;;;;;;;;24.02;65.58;96548.07;624199;227;64918;-70
2021/12/27 02:50:25;;;;;;;;;;;;;;;24.01;66.45;96546.47;622502;227;62555;-70
2021/12/27 02:52:53;;;;;;;;;;;;;;;24.00;65.70;96551.05;618970;229;65749;-70
2021/12/27 02:55:20;;;;;;;;;;;;;;;23.99;65.43;96548.68;618964;229;64722;-70
2021/12/27 02:57:50;;;;;;;;;;;;;;;23.99;65.80;96536.05;618973;229;65020;-66
2021/12/27 03:00:19;;;;;;;;;;;;;;;23.97;65.80;96532.86;618924;229;64951;-66
2021/12/27 03:02:48;;;;;;;;;;;;;;;23.99;65.96;96529.89;618916;229;65364;-67
2021/12/27 03:05:21;;;;;;;;;;;;;;;23.97;65.92;96524.81;618958;229;65173;-66
2021/12/27 03:07:47;;;;;;;;;;;;;;;23.97;66.27;96540.13;618815;228;65138;-66
2021/12/27 03:10:15;;;;;;;;;;;;;;;23.96;67.22;96528.60;619000;229;64934;-70
2021/12/27 03:12:44;;;;;;;;;;;;;;;23.96;65.83;96525.92;618936;229;64636;-71
2021/12/27 03:15:12;;;;;;;;;;;;;;;23.97;65.58;96529.39;618938;229;63086;-66
2021/12/27 03:17:42;;;;;;;;;;;;;;;23.95;65.66;96524.31;618926;229;66076;-66
2021/12/27 03:20:10;;;;;;;;;;;;;;;23.96;67.18;96527.81;619001;229;65146;-66
2021/12/27 03:22:37;;;;;;;;;;;;;;;23.95;66.52;96532.36;618956;229;65522;-70
2021/12/27 03:25:06;;;;;;;;;;;;;;;23.92;65.68;96523.02;618901;229;65126;-70
2021/12/27 03:27:34;;;;;;;;;;;;;;;23.92;66.64;96532.97;618894;229;65060;-71
2021/12/27 03:30:02;;;;;;;;;;;;;;;23.93;67.49;96539.95;618900;229;65692;-71
2021/12/27 03:32:31;;;;;;;;;;;;;;;23.92;67.05;96539.13;618963;229;62920;-66
2021/12/27 03:35:08;;;;;;;;;;;;;;;23.92;67.02;96532.97;618903;229;64854;-66
2021/12/27 03:37:27;;;;;;;;;;;;;;;;;;618737;228;65372;-66
2021/12/27 03:39:54;;;;;;;;;;;;;;;23.91;66.83;96539.45;618950;229;65240;-66
2021/12/27 03:42:22;;;;;;;;;;;;;;;23.91;67.95;96547.50;618933;229;62575;-66
2021/12/27 03:44:49;;;;;;;;;;;;;;;23.88;67.20;96548.89;618929;229;63257;-66
2021/12/27 03:47:17;;;;;;;;;;;;;;;23.89;66.86;96552.36;618990;229;63160;-66
2021/12/27 03:49:44;;;;;;;;;;;;;;;23.87;68.02;96551.86;618845;227;62869;-66
2021/12/27 03:52:12;;;;;;;;;;;;;;;23.86;68.05;96550.28;618911;229;64081;-66
2021/12/27 03:54:39;;;;;;;;;;;;;;;23.86;68.09;96555.65;618955;229;64834;-66
2021/12/27 03:57:07;;;;;;;;;;;;;;;23.83;66.63;96554.36;618908;229;64921;-66
2021/12/27 04:02:13;;;;;;;;;;;;;;;23.85;67.79;96556.76;618955;229;62890;-67
2021/12/27 04:04:42;;;;;;;;;;;;;;;23.82;68.39;96550.09;618919;229;65041;-67
2021/12/27 04:07:10;;;;;;;;;;;;;;;23.83;68.92;96561.62;618933;229;65456;-67
2021/12/27 04:09:38;;;;;;;;;;;;;;;23.82;68.19;96551.99;618958;229;64938;-67
2021/12/27 04:12:06;;;;;;;;;;;;;;;23.81;67.46;96555.75;618910;229;62747;-67
2021/12/27 04:14:33;;;;;;;;;;;;;;;23.80;69.40;96554.96;618964;229;65293;-67
2021/12/27 04:17:01;;;;;;;;;;;;;;;23.81;68.33;96555.75;618957;229;65679;-67
2021/12/27 04:19:28;;;;;;;;;;;;;;;23.80;68.86;96562.22;618960;229;64916;-72
2021/12/27 04:21:56;;;;;;;;;;;;;;;23.78;70.10;96553.67;618970;229;65214;-70
2021/12/27 04:24:23;;;;;;;;;;;;;;;23.76;68.52;96550.48;618956;229;65023;-70
2021/12/27 04:26:51;;;;;;;;;;;;;;;23.77;67.89;96557.46;619007;229;65107;-70
2021/12/27 04:29:18;;;;;;;;;;;;;;;23.76;65.98;96561.22;618930;229;65452;-70
2021/12/27 04:31:46;;;;;;;;;;;;;;;23.76;70.41;96556.64;618917;229;65230;-70
2021/12/27 04:34:13;;;;;;;;;;;;;;;23.75;68.42;96548.91;618986;229;64833;-70
2021/12/27 04:36:41;;;;;;;;;;;;;;;23.75;68.97;96551.59;618938;229;65081;-70
2021/12/27 04:39:08;;;;;;;;;;;;;;;23.73;66.57;96548.41;619012;229;65161;-70
2021/12/27 04:41:36;;;;;;;;;;;;;;;23.73;67.21;96556.45;618906;229;65016;-67
2021/12/27 04:44:04;;;;;;;;;;;;;;;23.69;68.81;96551.66;618935;229;65457;-65
2021/12/27 04:46:32;;;;;;;;;;;;;;;23.71;70.01;96562.14;618975;229;63014;-65
2021/12/27 04:48:59;;;;;;;;;;;;;;;23.71;69.05;96567.50;618909;229;65178;-65
2021/12/27 04:51:27;;;;;;;;;;;;;;;23.70;68.45;96563.18;618957;227;65381;-65
2021/12/27 04:53:55;;;;;;;;;;;;;;;23.69;69.39;96558.92;618990;229;62946;-66
2021/12/27 04:56:22;;;;;;;;;;;;;;;23.69;69.90;96556.23;618830;229;64842;-65
2021/12/27 04:58:50;;;;;;;;;;;;;;;23.68;68.92;96563.50;618946;229;66402;-65
2021/12/27 05:01:18;;;;;;;;;;;;;;;23.67;69.18;96561.89;618981;229;65341;-65
2021/12/27 05:03:46;;;;;;;;;;;;;;;23.67;69.50;96553.05;618939;229;62965;-65
2021/12/27 05:06:13;;;;;;;;;;;;;;;23.65;68.24;96550.69;618945;229;63341;-65
2021/12/27 05:08:42;;;;;;;;;;;;;;;23.63;69.39;96544.81;618911;229;65280;-66
2021/12/27 05:11:09;;;;;;;;;;;;;;;23.64;69.10;96537.56;618928;229;62644;-66
2021/12/27 05:13:37;;;;;;;;;;;;;;;23.62;69.02;96545.89;618971;229;65300;-70
2021/12/27 05:16:05;;;;;;;;;;;;;;;23.62;67.71;96547.78;618964;229;66149;-70
2021/12/27 05:18:32;;;;;;;;;;;;;;;23.61;70.68;96532.80;618948;229;64885;-69
2021/12/27 05:21:00;;;;;;;;;;;;;;;23.62;71.84;96543.21;618932;229;65442;-69
2021/12/27 05:23:27;;;;;;;;;;;;;;;23.61;68.51;96549.68;618922;229;65129;-69
2021/12/27 05:25:55;;;;;;;;;;;;;;;23.59;67.84;96541.13;618962;229;63636;-69
2021/12/27 05:28:22;;;;;;;;;;;;;;;23.59;69.93;96541.13;618960;229;65478;-69
2021/12/27 05:30:51;;;;;;;;;;;;;;;23.58;68.35;96541.45;618924;229;65585;-69
2021/12/27 05:33:19;;;;;;;;;;;;;;;23.59;70.37;96548.39;618923;229;64891;-70
2021/12/27 05:35:47;;;;;;;;;;;;;;;23.61;70.76;96543.52;618885;229;65462;-71
2021/12/27 05:38:15;;;;;;;;;;;;;;;23.58;69.02;96552.17;618950;229;65078;-70
2021/12/27 05:40:43;;;;;;;;;;;;;;;23.57;69.18;96540.66;618986;229;64988;-71
2021/12/27 05:43:10;;;;;;;;;;;;;;;23.57;70.66;96548.70;618936;229;65642;-71
2021/12/27 05:45:38;;;;;;;;;;;;;;;23.56;68.75;96540.94;618868;229;63155;-71
2021/12/27 05:48:06;;;;;;;;;;;;;;;23.54;69.87;96541.23;618857;229;62800;-71
2021/12/27 05:50:34;;;;;;;;;;;;;;;23.53;69.14;96547.70;620783;227;65160;-71
2021/12/27 05:53:02;;;;;;;;;;;;;;;23.52;69.65;96546.12;624237;227;65029;-70
2021/12/27 05:55:30;;;;;;;;;;;;;;;23.51;71.18;96541.83;624009;227;64849;-65
2021/12/27 05:57:58;;;;;;;;;;;;;;;23.52;70.54;96534.57;624129;227;63306;-66
2021/12/27 06:00:25;;;;;;;;;;;;;;;23.52;69.59;96546.12;624170;227;63670;-66
2021/12/27 06:02:55;;;;;;;;;;;;;;;23.49;68.88;96530.63;624128;227;64954;-66
2021/12/27 06:05:23;;;;;;;;;;;;;;;23.49;69.35;96542.14;624240;227;65453;-66
2021/12/27 06:07:51;;;;;;;;;;;;;;;23.40;69.53;96514.41;617481;227;66190;-66
2021/12/27 06:10:19;;;;;;;;;;;;;;;23.50;71.64;96526.84;617352;227;64714;-65
2021/12/27 06:12:47;;;;;;;;;;;;;;;23.51;71.05;96533.78;624109;227;65334;-66
2021/12/27 06:15:15;;;;;;;;;;;;;;;23.50;70.84;96529.52;624148;227;65349;-65
2021/12/27 06:17:42;;;;;;;;;;;;;;;23.51;70.49;96551.77;624141;227;64947;-65
2021/12/27 06:20:11;;;;;;;;;;;;;;;23.49;70.46;96539.46;624076;227;65387;-65
2021/12/27 06:22:40;;;;;;;;;;;;;;;23.47;70.25;96541.64;624172;227;63145;-66
2021/12/27 06:25:08;;;;;;;;;;;;;;;23.51;69.35;96531.09;624156;227;65189;-66
2021/12/27 06:27:35;;;;;;;;;;;;;;;23.51;70.35;96539.14;624175;227;65382;-66
2021/12/27 06:30:04;;;;;;;;;;;;;;;23.50;71.66;96542.93;624049;227;65027;-66
2021/12/27 06:32:32;;;;;;;;;;;;;;;23.48;70.07;96534.38;624206;227;65198;-66
2021/12/27 06:35:00;;;;;;;;;;;;;;;23.52;71.19;96538.07;624139;227;65213;-65
2021/12/27 06:37:27;;;;;;;;;;;;;;;23.50;71.88;96534.88;624152;227;64821;-65
2021/12/27 06:39:55;;;;;;;;;;;;;;;23.48;71.48;96519.08;624176;227;62729;-65
2021/12/27 06:42:22;;;;;;;;;;;;;;;23.50;69.70;96516.11;624154;227;63275;-65
2021/12/27 06:44:50;;;;;;;;;;;;;;;23.51;72.48;96516.90;624173;227;63158;-65
2021/12/27 06:47:17;;;;;;;;;;;;;;;23.51;71.71;96523.05;624181;227;62840;-66
2021/12/27 06:49:48;;;;;;;;;;;;;;;23.48;70.85;96523.66;623882;227;65450;-66
2021/12/27 06:52:16;;;;;;;;;;;;;;;23.50;71.88;96513.43;618803;229;63999;-66
2021/12/27 06:54:43;;;;;;;;;;;;;;;23.52;69.91;96518.48;618934;229;63813;-67
2021/12/27 06:57:11;;;;;;;;;;;;;;;23.51;71.90;96524.95;618892;229;63041;-59
2021/12/27 06:59:38;;;;;;;;;;;;;;;23.45;66.01;96508.16;618241;229;62696;-60
2021/12/27 07:02:06;;;;;;;;;;;;;;;23.53;67.34;96520.88;618949;229;62991;-64
2021/12/27 07:04:34;;;;;;;;;;;;;;;23.53;64.09;96517.41;618759;229;64878;-64
2021/12/27 07:07:01;;;;;;;;;;;;;;;23.62;65.82;96527.11;618769;229;64925;-63
2021/12/27 07:09:29;;;;;;;;;;;;;;;23.67;66.35;96520.86;618689;229;64890;-63
2021/12/27 07:11:56;;;;;;;;;;;;;;;23.65;66.83;96521.17;618887;229;65433;-66
2021/12/27 07:14:24;;;;;;;;;;;;;;;23.67;67.20;96515.50;618821;229;65176;-66
2021/12/27 07:16:51;;;;;;;;;;;;;;;23.72;66.25;96528.05;618882;229;62752;-65
2021/12/27 07:19:19;;;;;;;;;;;;;;;23.73;62.79;96524.27;618905;229;62718;-66
2021/12/27 07:21:46;;;;;;;;;;;;;;;23.73;63.56;96518.89;618832;229;64806;-66
2021/12/27 07:24:15;;;;;;;;;;;;;;;23.75;63.05;96533.59;618820;228;42461;-66
2021/12/27 07:26:43;;;;;;;;;;;;;;;23.75;64.29;96528.23;618908;229;62991;-66
2021/12/27 07:29:10;;;;;;;;;;;;;;;23.78;64.20;96540.25;616110;229;63071;-66
2021/12/27 07:31:38;;;;;;;;;;;;;;;23.79;63.82;96536.47;611929;232;64912;-66
2021/12/27 07:34:06;;;;;;;;;;;;;;;23.80;64.44;96540.76;611863;232;65313;-66
2021/12/27 07:36:33;;;;;;;;;;;;;;;23.82;63.58;96533.21;611889;232;64873;-66
2021/12/27 07:39:01;;;;;;;;;;;;;;;23.81;63.67;96548.49;611913;232;62784;-66
2021/12/27 07:41:29;;;;;;;;;;;;;;;23.84;63.47;96541.73;611844;232;65462;-66
2021/12/27 07:43:57;;;;;;;;;;;;;;;23.85;64.25;96533.39;608466;232;64543;-66
2021/12/27 07:46:25;;;;;;;;;;;;;;;23.87;64.49;96538.44;611913;232;62914;-66
2021/12/27 07:48:52;;;;;;;;;;;;;;;23.87;63.38;96527.70;611871;232;64083;-66
2021/12/27 07:51:20;;;;;;;;;;;;;;;23.89;63.12;96525.53;611896;230;62720;-66
2021/12/27 07:53:46;;;;;;;;;;;;;;;;;;611921;232;63592;-66
2021/12/27 07:56:14;;;;;;;;;;;;;;;23.91;63.93;96520.66;611898;232;61964;-66
2021/12/27 07:58:41;;;;;;;;;;;;;;;23.92;63.64;96524.92;611847;232;63239;-66
2021/12/27 08:01:09;;;;;;;;;;;;;;;23.92;63.78;96512.29;611916;232;65100;-61
2021/12/27 08:03:36;;;;;;;;;;;;;;;23.95;63.67;96521.62;611879;232;65411;-60
2021/12/27 08:06:04;;;;;;;;;;;;;;;23.95;64.51;96513.58;611879;232;65039;-65
2021/12/27 08:08:31;;;;;;;;;;;;;;;23.93;64.74;96492.42;611896;232;65041;-64
2021/12/27 08:10:59;;;;;;;;;;;;;;;23.90;62.12;96497.61;611826;232;65449;-64
2021/12/27 08:13:26;;;;;;;;;;;;;;;23.99;61.96;96498.47;611874;232;65178;-65
2021/12/27 08:15:54;;;;;;;;;;;;;;;23.98;62.78;96491.53;611966;232;65021;-64
2021/12/27 08:18:22;;;;;;;;;;;;;;;23.97;63.49;96484.55;611750;232;62722;-66
2021/12/27 08:20:49;;;;;;;;;;;;;;;23.97;63.08;96481.88;613824;229;62909;-64
2021/12/27 08:23:17;;;;;;;;;;;;;;;23.98;63.51;96499.58;615419;229;62903;-64
2021/12/27 08:25:44;;;;;;;;;;;;;;;23.99;63.49;96489.63;614151;229;65917;-63
2021/12/27 08:28:12;;;;;;;;;;;;;;;24.00;63.63;96500.05;611926;232;65009;-67
2021/12/27 08:30:40;;;;;;;;;;;;;;;24.01;63.18;96492.78;608467;232;66734;-72
2021/12/27 08:33:07;;;;;;;;;;;;;;;24.03;62.70;96491.39;611845;232;63484;-64
2021/12/27 08:35:36;;;;;;;;;;;;;;;24.04;63.05;96484.16;611917;232;63015;-63
2021/12/27 08:38:04;;;;;;;;;;;;;;;24.06;62.91;96485.44;611832;232;64952;-63
2021/12/27 08:40:32;;;;;;;;;;;;;;;24.06;62.89;96481.94;611943;232;66564;-64
2021/12/27 08:42:59;;;;;;;;;;;;;;;24.08;63.71;96477.85;611919;232;71676;-69
2021/12/27 08:45:27;;;;;;;;;;;;;;;24.09;63.41;96475.95;611820;232;64920;-65
2021/12/27 08:47:55;;;;;;;;;;;;;;;24.10;63.52;96488.30;611855;232;65700;-60
2021/12/27 08:50:22;;;;;;;;;;;;;;;24.09;63.85;96476.78;613345;230;66283;-62
2021/12/27 08:52:50;;;;;;;;;;;;;;;24.10;63.16;96467.61;616965;230;65115;-63
2021/12/27 08:55:17;;;;;;;;;;;;;;;24.15;63.10;96488.98;617032;230;65408;-64
2021/12/27 08:57:46;;;;;;;;;;;;;;;24.12;62.41;96460.05;617010;230;64980;-64
2021/12/27 09:00:16;;;;;;;;;;;;;;;24.14;62.86;96457.87;616937;230;63117;-63
2021/12/27 09:02:44;;;;;;;;;;;;;;;24.12;63.18;96468.11;617047;230;63209;-63
2021/12/27 09:05:11;;;;;;;;;;;;;;;24.12;62.94;96452.00;617075;230;62767;-64
2021/12/27 09:07:39;;;;;;;;;;;;;;;24.13;63.22;96469.69;617015;230;62753;-64
2021/12/27 09:10:07;;;;;;;;;;;;;;;24.12;62.78;96445.84;617040;230;63202;-62
2021/12/27 09:12:36;;;;;;;;;;;;;;;24.06;62.21;96445.17;616973;230;64357;-77
2021/12/27 09:15:04;;;;;;;;;;;;;;;24.06;62.89;96469.33;616981;230;65101;-60
2021/12/27 09:17:31;;;;;;;;;;;;;;;24.05;64.32;96462.36;617054;230;65303;-57
2021/12/27 09:19:59;;;;;;;;;;;;;;;24.09;63.84;96460.67;617073;230;65224;-58
2021/12/27 09:22:26;;;;;;;;;;;;;;;24.18;63.82;96463.41;616992;230;64952;-58
2021/12/27 09:24:54;;;;;;;;;;;;;;;24.23;63.03;96449.87;616995;230;65341;-64
2021/12/27 09:27:21;;;;;;;;;;;;;;;24.26;63.19;96440.41;617929;227;65424;-63
2021/12/27 09:29:49;;;;;;;;;;;;;;;24.28;63.35;96432.83;620777;227;64836;-72
2021/12/27 09:32:17;;;;;;;;;;;;;;;24.26;63.43;96426.98;618946;227;62864;-71
2021/12/27 09:34:44;;;;;;;;;;;;;;;24.26;64.12;96426.98;617032;230;63180;-71
2021/12/27 09:37:12;;;;;;;;;;;;;;;24.27;65.21;96436.63;616963;230;65022;-71
2021/12/27 09:39:39;;;;;;;;;;;;;;;24.27;64.02;96439.30;616972;230;65904;-72
2021/12/27 09:42:07;;;;;;;;;;;;;;;24.27;65.16;96423.98;617018;230;65214;-68
2021/12/27 09:44:35;;;;;;;;;;;;;;;24.28;64.53;96435.51;616986;230;65202;-67
2021/12/27 09:47:04;;;;;;;;;;;;;;;24.30;64.53;96417.99;619185;227;65806;-66
2021/12/27 09:49:31;;;;;;;;;;;;;;;24.30;63.96;96430.63;619436;227;65541;-67
2021/12/27 09:52:00;;;;;;;;;;;;;;;24.32;63.69;96425.75;616894;230;65139;-67
2021/12/27 09:54:29;;;;;;;;;;;;;;;24.34;63.69;96436.99;617093;230;45354;-67
2021/12/27 09:56:57;;;;;;;;;;;;;;;24.34;64.18;96436.99;617011;230;64018;-67
2021/12/27 09:59:25;;;;;;;;;;;;;;;24.35;63.29;96431.30;617014;230;64957;-66
2021/12/27 10:01:53;;;;;;;;;;;;;;;24.36;63.63;96424.84;616988;230;65504;-67
2021/12/27 10:04:21;;;;;;;;;;;;;;;24.38;64.04;96419.94;616964;230;65189;-67
2021/12/27 10:06:49;;;;;;;;;;;;;;;24.41;64.83;96420.44;616957;230;65151;-67
2021/12/27 10:09:17;;;;;;;;;;;;;;;24.40;63.83;96432.28;617979;227;63094;-66
2021/12/27 10:11:46;;;;;;;;;;;;;;;24.42;63.75;96425.51;623859;227;62939;-67
2021/12/27 10:14:20;;;;;;;;;;;;;;;24.43;63.70;96419.03;624088;227;65538;-69
2021/12/27 10:16:49;;;;;;;;;;;;;;;24.44;64.00;96406.41;624118;227;63187;-68
2021/12/27 10:19:19;;;;;;;;;;;;;;;24.44;63.60;96404.52;618741;227;64944;-68
2021/12/27 10:21:48;;;;;;;;;;;;;;;24.46;63.58;96410.38;618811;227;65006;-67
2021/12/27 10:24:17;;;;;;;;;;;;;;;24.47;63.40;96397.73;616996;230;65531;-70
2021/12/27 10:26:46;;;;;;;;;;;;;;;24.44;63.49;96377.66;617017;230;63428;-70
2021/12/27 10:29:16;;;;;;;;;;;;;;;24.45;63.50;96379.27;617021;230;64754;-70
2021/12/27 10:31:50;;;;;;;;;;;;;;;24.47;63.03;96369.01;616980;230;65511;-70
2021/12/27 10:34:19;;;;;;;;;;;;;;;24.48;62.76;96359.84;616912;230;63005;-71
2021/12/27 10:37:02;;;;;;;;;;;;;;;24.51;62.05;96371.86;616910;230;64893;-71
2021/12/27 10:39:32;;;;;;;;;;;;;;;24.51;61.52;96379.92;616953;230;65287;-70
2021/12/27 10:42:13;;;;;;;;;;;;;;;24.52;62.24;96376.91;614987;230;65010;-70
2021/12/27 10:44:40;;;;;;;;;;;;;;;24.51;62.05;96361.91;610708;230;65176;-69
2021/12/27 10:47:24;;;;;;;;;;;;;;;24.53;62.59;96348.97;616969;230;65131;-70
2021/12/27 10:49:54;;;;;;;;;;;;;;;24.52;62.45;96351.95;616326;230;65124;-69
2021/12/27 10:52:22;;;;;;;;;;;;;;;24.48;63.02;96365.21;611832;232;65669;-70
2021/12/27 10:54:50;;;;;;;;;;;;;;;24.54;62.60;96357.81;611785;232;63489;-70
2021/12/27 10:57:20;;;;;;;;;;;;;;;24.50;61.12;96344.22;611642;231;63073;-69
2021/12/27 10:59:48;;;;;;;;;;;;;;;24.51;62.30;96335.05;611732;231;64889;-70
2021/12/27 11:02:16;;;;;;;;;;;;;;;24.55;61.77;96319.91;611842;232;63053;-70
2021/12/27 11:04:45;;;;;;;;;;;;;;;24.57;62.45;96343.75;611878;232;65146;-67
2021/12/27 11:07:13;;;;;;;;;;;;;;;24.56;61.98;96316.11;611917;232;64849;-65
2021/12/27 11:09:43;;;;;;;;;;;;;;;24.55;63.29;96319.91;611875;232;65244;-69
2021/12/27 11:12:11;;;;;;;;;;;;;;;24.57;62.22;96325.73;611908;232;63557;-66
2021/12/27 11:14:39;;;;;;;;;;;;;;;24.61;61.53;96311.68;611928;232;63806;-66
2021/12/27 11:17:07;;;;;;;;;;;;;;;24.61;62.23;96327.80;611850;232;62761;-67
2021/12/27 11:19:34;;;;;;;;;;;;;;;24.63;60.61;96309.48;611892;232;62747;-67
2021/12/27 11:22:03;;;;;;;;;;;;;;;24.63;61.87;96304.11;611866;232;62771;-68
2021/12/27 11:24:30;;;;;;;;;;;;;;;24.63;61.03;96325.60;611845;232;65002;-68
2021/12/27 11:26:59;;;;;;;;;;;;;;;24.62;61.41;96308.70;611942;232;62971;-66
2021/12/27 11:29:27;;;;;;;;;;;;;;;24.59;61.61;96299.36;611633;231;62842;-67
2021/12/27 11:31:56;;;;;;;;;;;;;;;24.61;61.46;96306.31;611245;232;63031;-68
2021/12/27 11:34:23;;;;;;;;;;;;;;;24.63;61.78;96306.80;610726;231;64814;-67
2021/12/27 11:36:56;;;;;;;;;;;;;;;24.64;61.27;96303.02;611421;232;64907;-69
2021/12/27 11:39:32;;;;;;;;;;;;;;;24.65;60.63;96326.09;611832;232;65680;-69
2021/12/27 11:42:07;;;;;;;;;;;;;;;24.66;61.03;96306.95;611737;231;63283;-69
2021/12/27 11:44:36;;;;;;;;;;;;;;;24.67;61.11;96310.45;611808;232;65003;-69
2021/12/27 11:47:06;;;;;;;;;;;;;;;24.66;61.42;96298.89;612022;230;45280;-70
2021/12/27 11:49:35;;;;;;;;;;;;;;;24.65;61.19;96302.70;612438;231;65436;-70
2021/12/27 11:52:27;;;;;;;;;;;;;;;24.67;60.88;96294.34;616750;230;65059;-69
2021/12/27 11:54:59;;;;;;;;;;;;;;;24.66;60.99;96309.64;616953;230;65647;-70
2021/12/27 11:57:48;;;;;;;;;;;;;;;24.65;61.11;96305.38;617045;230;65118;-69
2021/12/27 12:00:20;;;;;;;;;;;;;;;24.69;60.85;96310.91;616939;230;65089;-70
2021/12/27 12:02:49;;;;;;;;;;;;;;;24.67;60.48;96303.19;616961;230;62999;-67
2021/12/27 12:05:35;;;;;;;;;;;;;;;24.67;60.30;96305.08;616720;230;62993;-67
2021/12/27 12:08:04;;;;;;;;;;;;;;;24.65;62.89;96301.91;617027;230;63125;-71
2021/12/27 12:10:33;;;;;;;;;;;;;;;24.69;60.12;96297.48;616823;230;43952;-65
2021/12/27 12:13:21;;;;;;;;;;;;;;;24.68;60.00;96293.22;616964;230;65261;-63
2021/12/27 12:15:59;;;;;;;;;;;;;;;24.70;60.46;96293.71;616926;230;63205;-65
2021/12/27 12:18:29;;;;;;;;;;;;;;;24.72;59.84;96291.51;607604;230;65521;-65
2021/12/27 12:20:58;;;;;;;;;;;;;;;24.73;59.48;96290.39;616810;229;65413;-63
2021/12/27 12:23:26;;;;;;;;;;;;;;;24.71;59.17;96279.16;617041;230;65210;-64
2021/12/27 12:25:58;;;;;;;;;;;;;;;24.72;58.91;96304.95;617008;230;65410;-65
2021/12/27 12:28:25;;;;;;;;;;;;;;;24.73;58.90;96301.14;616890;230;62791;-64
2021/12/27 12:30:53;;;;;;;;;;;;;;;24.72;58.97;96304.95;617025;230;62791;-65
2021/12/27 12:33:23;;;;;;;;;;;;;;;24.74;59.58;96291.97;616978;230;65754;-65
2021/12/27 12:35:52;;;;;;;;;;;;;;;24.75;59.01;96290.88;617052;230;65000;-65
2021/12/27 12:38:24;;;;;;;;;;;;;;;24.76;58.76;96311.27;617053;230;64892;-67
2021/12/27 12:41:05;;;;;;;;;;;;;;;24.77;60.11;96294.84;620538;227;65634;-67
2021/12/27 12:43:34;;;;;;;;;;;;;;;24.77;59.53;96299.40;620333;227;62905;-65
2021/12/27 12:46:16;;;;;;;;;;;;;;;24.78;59.96;96317.13;620144;227;65203;-66
2021/12/27 12:48:44;;;;;;;;;;;;;;;24.79;58.64;96310.63;619832;227;65632;-65
2021/12/27 12:51:12;;;;;;;;;;;;;;;24.79;58.71;96302.57;616980;230;63018;-65
2021/12/27 12:53:39;;;;;;;;;;;;;;;24.78;58.91;96306.38;617702;227;62894;-64
2021/12/27 12:56:08;;;;;;;;;;;;;;;24.78;58.10;96296.41;624073;227;62989;-65
2021/12/27 12:58:41;;;;;;;;;;;;;;;24.81;59.45;96305.75;621412;227;65535;-65
2021/12/27 13:01:09;;;;;;;;;;;;;;;24.81;58.90;96313.81;617009;230;65370;-66